Chetopa, KS (67336)

10:43 PM CDT on August 28, 2016 (GMT -0500)
Gerrity Farm (SE Labette) | | Change Station

Elev 831 ft 37.07 °N, 95.16 °W | Updated 11 minutes ago

Partly Cloudy
Partly Cloudy
77.8 °F
Feels Like 80 °F
N
1.0
Wind Variable Wind from SE
Gusts 3.0 mph

Today
High -- | Low -- °F
--% Chance of Precip.
Yesterday
High -- | Low -- °F
Precip. -- in
Pressure 30.07 in
Visibility 10.0 miles
Clouds Few 7500 ft
Heat Index 80 °F
Dew Point 72 °F
Humidity 81%
Rainfall 0.00 in
Snow Depth Not available.
6:48 AM 7:53 PM
Waning Crescent, 11% visible
METAR KCFV 290252Z AUTO 17004KT 10SM FEW075 26/19 A3009 RMK AO2 SLP181 T02610194 51025
Pressure 30.07 in
Visibility 10.0 miles
Clouds Few 7500 ft
Heat Index 80 °F
Dew Point 72 °F
Humidity 81%
Rainfall 0.00 in
Snow Depth Not available.
6:48 AM 7:53 PM
Waning Crescent, 11% visible
METAR KCFV 290252Z AUTO 17004KT 10SM FEW075 26/19 A3009 RMK AO2 SLP181 T02610194 51025

10-Day Weather Forecast

Almanac

Astronomy

Aug. 28, 2016 Rise Set
Actual Time
Civil Twilight
Nautical Twilight
Astronomical Twilight
Moon
Length of Visible Light
Length of Day
Tomorrow will be .
, % of the Moon is Illuminated

Today's Extremes

State Highs State Lows

Community

WunderPhotos

Upload Photos

1,935,783 photos uploaded!

WunderBlog® & News

Nearby

Air Quality

  Air Quality AQ Index Pollutant
Not available.

Snow Depth

Station Depth Elevation

Earthquake Activity

City Distance Mag. Time & Date
Minimum magnitude displayed is 2.5.

Coastal Water Temperatures

Place Temperature

Stations

Nearby Weather Stations

Station Location Temp. Windchill Dew Point Humidity Wind Precip. Elev Updated Type
                   

Watches & Warnings

There are currently no watches in effect.